EW0401 Weather Reports


time (UTC)temp
C
wind
direction
speed
KPH
gust
KPH
rain 1hr
cm
rain 24hr
cm
rain mn
cm
humidity
%
barometer
mb
20240614133603 27 83 0.0 0.0 0.00 0.00 0.00 88 1014.8
20240614133103 26 83 0.0 0.0 0.00 0.00 0.00 89 1014.8
20240614132603 26 83 0.0 0.0 0.00 0.00 0.00 89 1014.8
20240614132104 26 83 0.0 3.2 0.00 0.00 0.00 90 1014.7
20240614131103 26 83 0.0 0.0 0.00 0.00 0.00 91 1014.8
20240614130603 25 83 0.0 1.6 0.00 0.00 0.00 92 1014.7
20240614130103 25 83 0.0 3.2 0.00 0.00 0.00 93 1014.7
20240614125603 25 83 0.0 1.6 0.00 0.00 0.00 93 1014.7
20240614125104 25 83 0.0 3.2 0.00 0.00 0.00 93 1014.7
20240614124603 25 193 0.0 0.0 0.00 0.00 0.00 94 1014.7
20240614124104 25 193 0.0 0.0 0.00 0.00 0.00 94 1014.7
20240614123603 25 193 0.0 0.0 0.00 0.00 0.00 94 1014.7
20240614123103 25 193 0.0 0.0 0.00 0.00 0.00 94 1014.6
20240614122603 24 193 0.0 0.0 0.00 0.00 0.00 95 1014.5
20240614122104 24 193 0.0 0.0 0.00 0.00 0.00 94 1014.4
20240614121603 24 193 0.0 0.0 0.00 0.00 0.00 94 1014.4
20240614121103 24 193 0.0 0.0 0.00 0.00 0.00 94 1014.4
20240614120603 24 193 0.0 0.0 0.00 0.00 0.00 94 1014.3
20240614120103 24 193 0.0 0.0 0.00 0.00 0.00 94 1014.0
20240614115103 24 193 0.0 0.0 0.00 0.00 0.00 93 1014.2
20240614114603 24 193 0.0 0.0 0.00 0.00 0.00 93 1014.1
20240614114103 24 193 0.0 0.0 0.00 0.00 0.00 94 1014.0
20240614113604 24 193 0.0 0.0 0.00 0.00 0.00 94 1013.9
20240614113103 24 193 0.0 3.2 0.00 0.00 0.00 94 1013.9
20240614112541 23 193 0.0 3.2 0.00 0.00 0.00 94 1014.0
20240614112050 23 193 0.0 0.0 0.00 0.00 0.00 94 1014.0
20240614111604 23 193 0.0 0.0 0.00 0.00 0.00 93 1013.9
20240614111531 23 193 0.0 0.0 0.00 0.00 0.00 93 1014.0
20240614111041 23 193 0.0 0.0 0.00 0.00 0.00 93 1013.9
20240614110550 23 193 0.0 0.0 0.00 0.00 0.00 93 1013.8
20240614110116 23 193 0.0 0.0 0.00 0.00 0.00 93 1013.9
20240614105759 23 193 0.0 0.0 0.00 0.00 0.00 93 1013.5
20240614105230 30 135 0.0 6.4 0.00 0.00 0.00 76 1014.2
20240614104103 23 193 0.0 0.0 0.00 0.00 0.00 93 1013.5
20240614103603 23 193 0.0 0.0 0.00 0.00 0.00 93 1013.4
20240614103103 23 193 0.0 0.0 0.00 0.00 0.00 92 1013.4
20240614102603 23 193 0.0 0.0 0.00 0.00 0.00 92 1013.4
20240614102103 23 193 0.0 0.0 0.00 0.00 0.00 92 1013.3
20240614101604 23 193 0.0 0.0 0.00 0.00 0.00 92 1013.3
20240614101103 23 193 0.0 0.0 0.00 0.00 0.00 92 1013.3
20240614100603 23 193 0.0 0.0 0.00 0.00 0.00 92 1013.4
20240614100104 23 193 0.0 0.0 0.00 0.00 0.00 92 1013.4
20240614095604 23 193 0.0 0.0 0.00 0.00 0.00 92 1013.4
20240614094603 24 193 0.0 0.0 0.00 0.00 0.00 92 1013.3
20240614093604 24 193 0.0 0.0 0.00 0.00 0.00 92 1013.3
20240614092604 24 193 0.0 0.0 0.00 0.00 0.00 92 1013.3
20240614092103 24 193 0.0 0.0 0.00 0.00 0.00 92 1013.2
20240614091603 24 193 0.0 0.0 0.00 0.00 0.00 92 1013.1
20240614090604 24 193 0.0 0.0 0.00 0.00 0.00 92 1013.1
20240614090104 24 193 0.0 0.0 0.00 0.00 0.00 92 1013.1
20240614085603 24 193 0.0 0.0 0.00 0.00 0.00 92 1013.0
20240614085103 24 193 0.0 0.0 0.00 0.00 0.00 92 1013.0
20240614084603 24 193 0.0 0.0 0.00 0.00 0.00 92 1013.0
20240614083104 24 193 0.0 0.0 0.00 0.00 0.00 92 1013.1
20240614082604 24 193 0.0 0.0 0.00 0.00 0.00 91 1013.1
20240614082104 24 193 0.0 0.0 0.00 0.00 0.00 91 1013.1
20240614081603 24 193 0.0 0.0 0.00 0.00 0.00 91 1013.1
20240614081103 24 193 0.0 0.0 0.00 0.00 0.00 91 1013.1
20240614080603 24 193 0.0 0.0 0.00 0.00 0.00 91 1013.0
20240614075603 24 193 0.0 0.0 0.00 0.00 0.00 91 1013.0
20240614075103 24 193 0.0 0.0 0.00 0.00 0.00 91 1013.1
20240614074603 24 193 0.0 0.0 0.00 0.00 0.00 91 1013.1
20240614074103 24 193 0.0 0.0 0.00 0.00 0.00 91 1013.1
20240614073603 24 193 0.0 0.0 0.00 0.00 0.00 90 1013.1
20240614073103 24 193 0.0 0.0 0.00 0.00 0.00 90 1013.2
20240614072603 24 193 0.0 0.0 0.00 0.00 0.00 90 1013.2
20240614072103 24 193 0.0 0.0 0.00 0.00 0.00 90 1013.2
20240614071603 25 193 0.0 0.0 0.00 0.00 0.00 90 1013.2
20240614071103 25 193 0.0 0.0 0.00 0.00 0.00 90 1013.2
20240614070603 25 193 0.0 0.0 0.00 0.00 0.00 90 1013.3
20240614070103 25 193 0.0 0.0 0.00 0.00 0.00 90 1013.2
20240614065604 25 193 0.0 0.0 0.00 0.00 0.00 90 1013.1
20240614065103 25 193 0.0 0.0 0.00 0.00 0.00 90 1013.1
20240614064603 25 193 0.0 0.0 0.00 0.00 0.00 90 1013.0
20240614064103 25 193 0.0 0.0 0.00 0.00 0.00 90 1013.0
20240614063603 25 193 0.0 0.0 0.00 0.00 0.00 90 1013.0
20240614063103 25 193 0.0 0.0 0.00 0.00 0.00 90 1012.9
20240614062603 25 193 0.0 0.0 0.00 0.00 0.00 90 1012.9
20240614061604 25 193 0.0 0.0 0.00 0.00 0.00 89 1012.9
20240614061104 25 193 0.0 0.0 0.00 0.00 0.00 89 1012.9
20240614060604 25 193 0.0 0.0 0.00 0.00 0.00 89 1012.9
20240614055603 25 193 0.0 0.0 0.00 0.00 0.00 89 1013.0
20240614054603 25 193 0.0 0.0 0.00 0.00 0.00 88 1013.0
20240614054103 25 193 0.0 0.0 0.00 0.00 0.00 88 1013.0
20240614053603 25 193 0.0 0.0 0.00 0.00 0.00 88 1013.1
20240614053103 25 193 0.0 0.0 0.00 0.00 0.00 88 1013.1
20240614052603 25 193 0.0 0.0 0.00 0.00 0.00 88 1013.2
20240614051104 26 193 0.0 0.0 0.00 0.00 0.00 87 1013.1
20240614050103 26 193 0.0 0.0 0.00 0.00 0.00 86 1013.1
20240614045603 26 193 0.0 0.0 0.00 0.00 0.00 86 1013.2
20240614044604 26 193 0.0 0.0 0.00 0.00 0.00 86 1013.1
20240614044104 26 193 0.0 0.0 0.00 0.00 0.00 85 1013.0
20240614043603 26 193 0.0 0.0 0.00 0.00 0.00 85 1013.0
20240614043103 26 193 0.0 0.0 0.00 0.00 0.00 85 1013.1
20240614042603 26 193 0.0 0.0 0.00 0.00 0.00 84 1013.1
20240614042103 26 193 0.0 0.0 0.00 0.00 0.00 84 1013.1
20240614041103 27 193 0.0 0.0 0.00 0.00 0.00 84 1013.1
20240614040604 27 193 0.0 0.0 0.00 0.00 0.00 83 1013.1
20240614040104 27 193 0.0 0.0 0.00 0.00 0.00 83 1013.1
20240614035103 27 193 0.0 0.0 0.00 0.00 0.00 82 1013.0
20240614034603 27 193 0.0 0.0 0.00 0.00 0.00 82 1013.0
20240614034103 27 193 0.0 0.0 0.00 0.00 0.00 81 1013.0
20240614033603 27 193 0.0 0.0 0.00 0.00 0.00 81 1013.0
20240614033103 27 193 0.0 0.0 0.00 0.00 0.00 81 1013.0
20240614032603 27 193 0.0 0.0 0.00 0.00 0.00 81 1012.9
20240614032103 27 193 0.0 0.0 0.00 0.00 0.00 81 1013.0
20240614031604 27 193 0.0 0.0 0.00 0.00 0.00 80 1012.8
20240614031104 27 193 0.0 0.0 0.00 0.00 0.00 80 1012.7
20240614030604 27 193 0.0 0.0 0.00 0.00 0.00 80 1012.7
20240614030103 28 193 0.0 0.0 0.00 0.00 0.00 80 1012.7
20240614025604 28 193 0.0 0.0 0.00 0.00 0.00 80 1012.6
20240614025104 28 193 0.0 0.0 0.00 0.00 0.00 80 1012.6
20240614024104 28 193 0.0 0.0 0.00 0.00 0.00 80 1012.6
20240614023604 28 193 0.0 0.0 0.00 0.00 0.00 79 1012.5
20240614023104 28 193 0.0 0.0 0.00 0.00 0.00 79 1012.6
20240614022603 28 193 0.0 0.0 0.00 0.00 0.00 79 1012.5
20240614022104 28 193 0.0 0.0 0.00 0.00 0.00 79 1012.5
20240614021603 28 193 0.0 0.0 0.00 0.00 0.00 79 1012.4
20240614021103 28 193 0.0 0.0 0.00 0.00 0.00 78 1012.4
20240614020603 28 193 0.0 0.0 0.00 0.00 0.00 78 1012.4
20240614020103 29 193 0.0 0.0 0.00 0.00 0.00 78 1012.4
20240614015604 29 193 0.0 0.0 0.00 0.00 0.00 77 1012.4
20240614015103 29 193 0.0 0.0 0.00 0.00 0.00 77 1012.4
20240614014603 29 193 0.0 0.0 0.00 0.00 0.00 77 1012.4
20240614014103 29 193 0.0 0.0 0.00 0.00 0.00 77 1012.5
20240614013603 29 193 0.0 0.0 0.00 0.00 0.00 77 1012.5
20240614013103 29 193 0.0 0.0 0.00 0.00 0.00 76 1012.5
20240614011603 30 193 0.0 0.0 0.00 0.00 0.00 75 1012.4
20240614011103 30 193 0.0 0.0 0.00 0.00 0.00 75 1012.4
20240614010603 30 193 0.0 3.2 0.00 0.00 0.00 74 1012.4
20240614010103 30 202 0.0 3.2 0.00 0.00 0.00 74 1012.4
20240614005603 30 202 0.0 0.0 0.00 0.00 0.00 74 1012.4
20240614005103 30 202 0.0 0.0 0.00 0.00 0.00 74 1012.3
20240614004603 30 202 0.0 0.0 0.00 0.00 0.00 74 1012.3
20240614004104 30 194 0.0 0.0 0.00 0.00 0.00 73 1012.3
20240614003604 30 194 0.0 3.2 0.00 0.00 0.00 73 1012.3
20240614003103 31 194 0.0 0.0 0.00 0.00 0.00 73 1012.3
20240614002604 31 194 0.0 3.2 0.00 0.00 0.00 73 1012.2
20240614002103 31 194 1.6 4.8 0.00 0.00 0.00 72 1012.2
20240614001103 31 170 1.6 4.8 0.00 0.00 0.00 73 1012.1
20240614000603 31 171 0.0 3.2 0.00 0.00 0.00 73 1012.1
20240614000104 31 171 0.0 1.6 0.00 0.00 0.00 72 1012.1
20240613235103 31 171 0.0 8.0 0.00 0.00 0.00 71 1012.0
20240613234603 31 194 1.6 3.2 0.00 0.00 0.00 71 1012.1
20240613233604 31 196 0.0 3.2 0.00 0.00 0.00 71 1012.1
20240613233103 31 194 0.0 3.2 0.00 0.00 0.00 71 1012.1
20240613232603 31 192 0.0 3.2 0.00 0.00 0.00 72 1012.1
20240613232104 31 195 0.0 3.2 0.00 0.00 0.00 72 1012.2
20240613231103 31 202 0.0 0.0 0.00 0.00 0.00 73 1012.2
20240613230103 31 160 0.0 3.2 0.00 0.00 0.00 72 1012.2
20240613225104 31 163 0.0 4.8 0.00 0.00 0.00 71 1012.2
20240613224603 31 205 0.0 3.2 0.00 0.00 0.00 71 1012.2
20240613224103 31 199 0.0 0.0 0.00 0.00 0.00 71 1012.3
20240613223603 31 199 0.0 1.6 0.00 0.00 0.00 71 1012.2
20240613223104 31 199 0.0 1.6 0.00 0.00 0.00 71 1012.3
20240613222604 31 199 1.6 4.8 0.00 0.00 0.00 71 1012.3
20240613222103 31 199 0.0 3.2 0.00 0.00 0.00 71 1012.3
20240613221603 31 196 0.0 4.8 0.00 0.00 0.00 71 1012.4
20240613221104 32 190 0.0 3.2 0.00 0.00 0.00 71 1012.4
20240613220604 32 180 0.0 3.2 0.00 0.00 0.00 71 1012.4
20240613220104 32 167 0.0 3.2 0.00 0.00 0.00 71 1012.5
20240613215604 32 183 0.0 3.2 0.00 0.00 0.00 70 1012.5
20240613215103 32 183 0.0 4.8 0.00 0.00 0.00 70 1012.5
20240613214604 32 186 0.0 3.2 0.00 0.00 0.00 69 1012.5
20240613214104 32 189 0.0 3.2 0.00 0.00 0.00 69 1012.5
20240613213603 32 160 0.0 3.2 0.00 0.00 0.00 69 1012.4
20240613213104 32 144 0.0 3.2 0.00 0.00 0.00 69 1012.5
20240613212603 33 135 0.0 4.8 0.00 0.00 0.00 70 1012.5
20240613212103 32 127 0.0 4.8 0.00 0.00 0.00 71 1012.5
20240613211604 32 159 0.0 1.6 0.00 0.00 0.00 71 1012.5
20240613211104 32 159 0.0 1.6 0.00 0.00 0.00 71 1012.5
20240613210604 32 163 0.0 0.0 0.00 0.00 0.00 71 1012.6
20240613210104 32 162 0.0 3.2 0.00 0.00 0.00 71 1012.7
20240613205604 32 163 0.0 1.6 0.00 0.00 0.00 72 1012.7
20240613205103 32 158 0.0 4.8 0.00 0.00 0.00 71 1012.7
20240613204604 32 100 0.0 3.2 0.00 0.00 0.00 71 1012.7
20240613204103 32 99 0.0 3.2 0.00 0.00 0.00 70 1012.7
20240613203603 32 99 0.0 3.2 0.00 0.00 0.00 70 1012.7
20240613203103 32 99 0.0 1.6 0.00 0.00 0.00 70 1012.7
20240613202604 32 99 1.6 4.8 0.00 0.00 0.00 69 1012.9
20240613202104 32 78 0.0 3.2 0.00 0.00 0.00 69 1012.9
20240613201103 33 143 0.0 3.2 0.00 0.00 0.00 69 1012.9
20240613200603 32 170 0.0 4.8 0.00 0.00 0.00 70 1013.0
20240613200103 32 169 1.6 8.0 0.00 0.00 0.00 70 1013.1
20240613195103 33 98 0.0 3.2 0.00 0.00 0.00 70 1013.1
20240613194603 33 98 0.0 3.2 0.00 0.00 0.00 68 1013.1
20240613194103 33 98 0.0 1.6 0.00 0.00 0.00 66 1013.1
20240613193604 33 97 0.0 3.2 0.00 0.00 0.00 66 1013.1
20240613193103 33 96 0.0 3.2 0.00 0.00 0.00 66 1013.1
20240613192603 32 94 0.0 3.2 0.00 0.00 0.00 67 1013.2
20240613191603 32 93 0.0 1.6 0.00 0.00 0.00 68 1013.4
20240613191104 32 93 0.0 3.2 0.00 0.00 0.00 68 1013.4
20240613190604 32 93 0.0 3.2 0.00 0.00 0.00 67 1013.5
20240613190105 33 161 0.0 3.2 0.00 0.00 0.00 66 1013.5
20240613185603 33 161 0.0 3.2 0.00 0.00 0.00 67 1013.6
20240613185103 32 217 1.6 3.2 0.00 0.00 0.00 66 1013.5
20240613184604 32 214 0.0 3.2 0.00 0.00 0.00 66 1013.6
20240613184104 32 216 0.0 3.2 0.00 0.00 0.00 66 1013.7
20240613183603 32 217 0.0 1.6 0.00 0.00 0.00 66 1013.7
20240613183103 32 217 0.0 3.2 0.00 0.00 0.00 65 1013.7
20240613182603 32 198 0.0 1.6 0.00 0.00 0.00 66 1013.8
20240613182104 32 113 0.0 4.8 0.00 0.00 0.00 66 1013.9
20240613181604 32 119 0.0 1.6 0.00 0.00 0.00 65 1014.0
20240613181102 33 117 0.0 3.2 0.00 0.00 0.00 65 1014.0
20240613180602 33 136 0.0 4.8 0.00 0.00 0.00 65 1014.1
20240613180102 33 28 1.6 4.8 0.00 0.00 0.00 65 1014.0
20240613175602 33 119 0.0 3.2 0.00 0.00 0.00 63 1014.0
20240613175102 33 121 0.0 3.2 0.00 0.00 0.00 65 1014.2
20240613174602 33 123 0.0 4.8 0.00 0.00 0.00 64 1014.2
20240613174102 33 196 0.0 3.2 0.00 0.00 0.00 67 1014.2
20240613173602 33 183 1.6 4.8 0.00 0.00 0.00 66 1014.2
20240613173102 33 162 0.0 9.7 0.00 0.00 0.00 65 1014.2
20240613171602 32 92 0.0 3.2 0.00 0.00 0.00 69 1014.3
20240613171103 32 65 0.0 4.8 0.00 0.00 0.00 67 1014.3
20240613170102 33 156 0.0 3.2 0.00 0.00 0.00 68 1014.4
20240613165602 32 90 0.0 4.8 0.00 0.00 0.00 70 1014.4
20240613165102 32 172 0.0 3.2 0.00 0.00 0.00 68 1014.4
20240613164603 32 33 0.0 4.8 0.00 0.00 0.00 69 1014.3
20240613164102 32 104 1.6 4.8 0.00 0.00 0.00 69 1014.3
20240613163602 32 116 0.0 4.8 0.00 0.00 0.00 70 1014.4
20240613163102 32 92 1.6 4.8 0.00 0.00 0.00 69 1014.4
20240613162602 32 107 1.6 4.8 0.00 0.00 0.00 68 1014.4
20240613161602 32 155 0.0 3.2 0.00 0.00 0.00 69 1014.5
20240613160103 32 98 0.0 4.8 0.00 0.00 0.00 72 1014.4
20240613155602 32 124 1.6 4.8 0.00 0.00 0.00 71 1014.4
20240613155102 31 112 0.0 3.2 0.00 0.00 0.00 71 1014.4
20240613153103 31 104 1.6 4.8 0.00 0.00 0.00 72 1014.4
20240613152102 31 109 1.6 4.8 0.00 0.00 0.00 71 1014.4
20240613151602 31 69 0.0 3.2 0.00 0.00 0.00 73 1014.4
20240613151102 31 72 1.6 3.2 0.00 0.00 0.00 73 1014.4
20240613150602 31 53 1.6 4.8 0.00 0.00 0.00 74 1014.4
20240613150102 30 55 0.0 4.8 0.00 0.00 0.00 75 1014.4
20240613145602 30 104 0.0 4.8 0.00 0.00 0.00 75 1014.4
20240613145102 30 105 0.0 4.8 0.00 0.00 0.00 75 1014.4
20240613144602 30 113 1.6 4.8 0.00 0.00 0.00 75 1014.4
20240613143602 30 122 1.6 4.8 0.00 0.00 0.00 76 1014.4
20240613143103 30 165 0.0 4.8 0.00 0.00 0.00 77 1014.4
20240613142602 29 113 0.0 3.2 0.00 0.00 0.00 78 1014.4
20240613142102 29 72 0.0 4.8 0.00 0.00 0.00 78 1014.4
20240613141602 28 107 1.6 4.8 0.00 0.00 0.00 78 1014.5
20240613140603 28 36 0.0 3.2 0.00 0.00 0.00 81 1014.4
20240613135602 27 27 1.6 4.8 0.00 0.00 0.00 83 1014.3
20240613135103 27 27 0.0 4.8 0.00 0.00 0.00 84 1014.3
20240613134602 27 30 0.0 1.6 0.00 0.00 0.00 84 1014.2
20240613134102 27 30 0.0 3.2 0.00 0.00 0.00 84 1014.2